Etusivu
METAR-TAF:

METAR-TAF

Lentoasemat :

Wink, Texas, Yhdysvallat

Leveyspiiri: 31-46-47N, Pituuspiiri: 103-12-05W, korkeus merenpinnasta: 860 m

Tämänhetkinen sää

Tämä raportti tehtiin 19 minuuttia sitten, kello 04.53 UTC
Tuuli 11 kn kaakosta
Lämpötila 12°C
Kosteus 22%
Ilmanpaine 1025 hPa
Näkyvyys: 16.1 km
selkeää

METAR: KINK 290453Z AUTO 14011KT 10SM CLR 12/M09 A3027 RMK AO2 SLP229 T01221089

Aika: 23:12 (05:12 UTC)

Sääennuste

Tämä raportti tehtiin 5 tuntia ja 44 minuuttia sitten, kello 23.28 UTC
Ennuste voimassa 29. päivästä klo 00 UTC - 29. päivään klo 24 UTC
Tuuli 5 kn eri suunnista
Näkyvyys: 10 km
Hajonneita pilviä 20000 ft:n korkeudessa
From 29. päivästä klo 1800 UTC
Tuuli 14 kn etelästä
Näkyvyys: 10 km
Hajanaisia pilviä 25000 ft:n korkeudessa

TAF: KINK 282328Z 2900/2924 VRB05KT P6SM BKN200 FM291800 18014KT P6SM SCT250

Säähavainnot ja -ennusteet yli 4000 lentoasemalta (METAR- ja TAF-raportit).

Käytössä olevat sääasemat on merkitty karttaan keltaisilla ja punaisilla pisteillä.

Aseta hiiri pisteen päälle nähdäksesi sääaseman nimen.

Klikkaa sitten nähdäksesi säähavainnot ja -ennusteet.

Kartan vaihtaminen: klikkaa mustalla rastilla varustettuja vihreitä pisteitä, niin voit zoomata sisään; viivalla varustettua vihreää pistettä, niin voit zoomata ulos tai vihreitä nuolia, niin pääset viereisille kartoille.


METAR-TAF: